Terminal Aerodrome Forecast
Issued by NWS Los Angeles, CA

Home | Current Version | Previous Version | Text Only | Print | Product List | Glossary On
Versions: 1 2 3 4 5 6 7 8 9 10 11 12 13 14 15 16 17 18 19 20 21 22 23 24 25
559
FTUS46 KLOX 230355 AAA
TAFSMX
TAF AMD
KSMX 230355Z 2304/2324 VRB03KT 4SM BR BKN003
     FM230600 VRB03KT 2SM BR OVC002
     FM230900 VRB03KT 1/4SM FG VV002
     FM231500 VRB03KT 1 1/2SM BR OVC003
     FM231700 28007KT 6SM HZ SKC
     FM232000 31010KT P6SM SKC=

USA.gov is the U.S. government's official web portal to all federal, state and local government web resources and services.